<?xml version="1.0" encoding="UTF-8" standalone="no" ?>
<gpx xmlns="http://www.topografix.com/GPX/1/1" xmlns:xsi="http://www.w3.org/2001/XMLSchema-instance" xsi:schemaLocation="http://www.topografix.com/GPX/1/1 http://www.topografix.com/GPX/1/1/gpx.xsd" version="1.1" creator="VisuGPX - https://www.visugpx.com">
  <metadata>
    <name>Beaucouzé - CAP 10km</name>
    <desc><![CDATA[Départ hotel b&b, un peu de route pour le transfert puis très beau chemin dans les bois. Sympa.]]></desc>
  </metadata>
  <trk>
    <name><![CDATA[Sequence 2]]></name>
    <trkseg>
      <trkpt lat="47.45082" lon="-0.62196">
        <ele>63</ele>
        <time>2015-08-25T17:57:16Z</time>
      </trkpt>
      <trkpt lat="47.45084" lon="-0.62217">
        <ele>64</ele>
        <time>2015-08-25T17:57:26Z</time>
      </trkpt>
      <trkpt lat="47.45082" lon="-0.62228">
        <ele>64</ele>
        <time>2015-08-25T17:57:30Z</time>
      </trkpt>
      <trkpt lat="47.45082" lon="-0.6224">
        <ele>64</ele>
        <time>2015-08-25T17:57:34Z</time>
      </trkpt>
      <trkpt lat="47.45077" lon="-0.62256">
        <ele>64</ele>
        <time>2015-08-25T17:57:40Z</time>
      </trkpt>
      <trkpt lat="47.45075" lon="-0.62294">
        <ele>64</ele>
        <time>2015-08-25T17:57:51Z</time>
      </trkpt>
      <trkpt lat="47.45067" lon="-0.62315">
        <ele>64</ele>
        <time>2015-08-25T17:57:57Z</time>
      </trkpt>
      <trkpt lat="47.45066" lon="-0.62318">
        <ele>64</ele>
        <time>2015-08-25T17:57:58Z</time>
      </trkpt>
      <trkpt lat="47.45058" lon="-0.62332">
        <ele>65</ele>
        <time>2015-08-25T17:58:04Z</time>
      </trkpt>
      <trkpt lat="47.45054" lon="-0.62344">
        <ele>65</ele>
        <time>2015-08-25T17:58:10Z</time>
      </trkpt>
      <trkpt lat="47.45039" lon="-0.62373">
        <ele>65</ele>
        <time>2015-08-25T17:58:20Z</time>
      </trkpt>
      <trkpt lat="47.45029" lon="-0.6238">
        <ele>65</ele>
        <time>2015-08-25T17:58:24Z</time>
      </trkpt>
      <trkpt lat="47.45025" lon="-0.62382">
        <ele>65</ele>
        <time>2015-08-25T17:58:28Z</time>
      </trkpt>
      <trkpt lat="47.45012" lon="-0.62402">
        <ele>66</ele>
        <time>2015-08-25T17:58:36Z</time>
      </trkpt>
      <trkpt lat="47.45001" lon="-0.62422">
        <ele>66</ele>
        <time>2015-08-25T17:58:42Z</time>
      </trkpt>
      <trkpt lat="47.44984" lon="-0.62443">
        <ele>66</ele>
        <time>2015-08-25T17:58:51Z</time>
      </trkpt>
      <trkpt lat="47.44977" lon="-0.62449">
        <ele>67</ele>
        <time>2015-08-25T17:58:54Z</time>
      </trkpt>
      <trkpt lat="47.44972" lon="-0.62457">
        <ele>67</ele>
        <time>2015-08-25T17:58:58Z</time>
      </trkpt>
      <trkpt lat="47.44955" lon="-0.62473">
        <ele>67</ele>
        <time>2015-08-25T17:59:06Z</time>
      </trkpt>
      <trkpt lat="47.44942" lon="-0.62496">
        <ele>68</ele>
        <time>2015-08-25T17:59:14Z</time>
      </trkpt>
      <trkpt lat="47.44942" lon="-0.62505">
        <ele>68</ele>
        <time>2015-08-25T17:59:16Z</time>
      </trkpt>
      <trkpt lat="47.44932" lon="-0.62516">
        <ele>68</ele>
        <time>2015-08-25T17:59:25Z</time>
      </trkpt>
      <trkpt lat="47.44926" lon="-0.62517">
        <ele>68</ele>
        <time>2015-08-25T17:59:28Z</time>
      </trkpt>
      <trkpt lat="47.44911" lon="-0.62525">
        <ele>68</ele>
        <time>2015-08-25T17:59:34Z</time>
      </trkpt>
      <trkpt lat="47.44895" lon="-0.62522">
        <ele>69</ele>
        <time>2015-08-25T17:59:40Z</time>
      </trkpt>
      <trkpt lat="47.44882" lon="-0.62522">
        <ele>69</ele>
        <time>2015-08-25T17:59:46Z</time>
      </trkpt>
      <trkpt lat="47.44859" lon="-0.62542">
        <ele>70</ele>
        <time>2015-08-25T17:59:57Z</time>
      </trkpt>
      <trkpt lat="47.4485" lon="-0.62553">
        <ele>70</ele>
        <time>2015-08-25T18:00:01Z</time>
      </trkpt>
      <trkpt lat="47.44845" lon="-0.62556">
        <ele>70</ele>
        <time>2015-08-25T18:00:04Z</time>
      </trkpt>
      <trkpt lat="47.44814" lon="-0.62552">
        <ele>71</ele>
        <time>2015-08-25T18:00:15Z</time>
      </trkpt>
      <trkpt lat="47.44797" lon="-0.62567">
        <ele>73</ele>
        <time>2015-08-25T18:00:21Z</time>
      </trkpt>
      <trkpt lat="47.44796" lon="-0.62577">
        <ele>73</ele>
        <time>2015-08-25T18:00:23Z</time>
      </trkpt>
      <trkpt lat="47.44795" lon="-0.62601">
        <ele>73</ele>
        <time>2015-08-25T18:00:29Z</time>
      </trkpt>
      <trkpt lat="47.44791" lon="-0.62626">
        <ele>74</ele>
        <time>2015-08-25T18:00:37Z</time>
      </trkpt>
      <trkpt lat="47.44789" lon="-0.6264">
        <ele>74</ele>
        <time>2015-08-25T18:00:41Z</time>
      </trkpt>
      <trkpt lat="47.44791" lon="-0.62676">
        <ele>74</ele>
        <time>2015-08-25T18:00:51Z</time>
      </trkpt>
      <trkpt lat="47.44791" lon="-0.62679">
        <ele>74</ele>
        <time>2015-08-25T18:00:52Z</time>
      </trkpt>
      <trkpt lat="47.4479" lon="-0.62717">
        <ele>74</ele>
        <time>2015-08-25T18:01:01Z</time>
      </trkpt>
      <trkpt lat="47.44788" lon="-0.62727">
        <ele>74</ele>
        <time>2015-08-25T18:01:04Z</time>
      </trkpt>
      <trkpt lat="47.44786" lon="-0.62748">
        <ele>74</ele>
        <time>2015-08-25T18:01:11Z</time>
      </trkpt>
      <trkpt lat="47.44774" lon="-0.62771">
        <ele>74</ele>
        <time>2015-08-25T18:01:20Z</time>
      </trkpt>
      <trkpt lat="47.44771" lon="-0.62776">
        <ele>74</ele>
        <time>2015-08-25T18:01:22Z</time>
      </trkpt>
      <trkpt lat="47.4476" lon="-0.62795">
        <ele>74</ele>
        <time>2015-08-25T18:01:28Z</time>
      </trkpt>
      <trkpt lat="47.44745" lon="-0.62809">
        <ele>74</ele>
        <time>2015-08-25T18:01:35Z</time>
      </trkpt>
      <trkpt lat="47.44728" lon="-0.62845">
        <ele>74</ele>
        <time>2015-08-25T18:01:45Z</time>
      </trkpt>
      <trkpt lat="47.44726" lon="-0.62848">
        <ele>74</ele>
        <time>2015-08-25T18:01:46Z</time>
      </trkpt>
      <trkpt lat="47.44716" lon="-0.62867">
        <ele>74</ele>
        <time>2015-08-25T18:01:53Z</time>
      </trkpt>
      <trkpt lat="47.44711" lon="-0.62876">
        <ele>74</ele>
        <time>2015-08-25T18:01:58Z</time>
      </trkpt>
      <trkpt lat="47.44722" lon="-0.62873">
        <ele>74</ele>
        <time>2015-08-25T18:02:09Z</time>
      </trkpt>
      <trkpt lat="47.44723" lon="-0.62871">
        <ele>74</ele>
        <time>2015-08-25T18:02:10Z</time>
      </trkpt>
      <trkpt lat="47.44739" lon="-0.62842">
        <ele>74</ele>
        <time>2015-08-25T18:02:21Z</time>
      </trkpt>
      <trkpt lat="47.44743" lon="-0.62837">
        <ele>74</ele>
        <time>2015-08-25T18:02:24Z</time>
      </trkpt>
      <trkpt lat="47.44749" lon="-0.62828">
        <ele>74</ele>
        <time>2015-08-25T18:02:28Z</time>
      </trkpt>
      <trkpt lat="47.44762" lon="-0.62803">
        <ele>74</ele>
        <time>2015-08-25T18:02:35Z</time>
      </trkpt>
      <trkpt lat="47.4477" lon="-0.62789">
        <ele>74</ele>
        <time>2015-08-25T18:02:40Z</time>
      </trkpt>
      <trkpt lat="47.44776" lon="-0.62778">
        <ele>74</ele>
        <time>2015-08-25T18:02:46Z</time>
      </trkpt>
      <trkpt lat="47.44788" lon="-0.62761">
        <ele>74</ele>
        <time>2015-08-25T18:02:54Z</time>
      </trkpt>
      <trkpt lat="47.44795" lon="-0.62753">
        <ele>74</ele>
        <time>2015-08-25T18:02:58Z</time>
      </trkpt>
      <trkpt lat="47.44802" lon="-0.6273">
        <ele>74</ele>
        <time>2015-08-25T18:03:04Z</time>
      </trkpt>
      <trkpt lat="47.44803" lon="-0.62711">
        <ele>74</ele>
        <time>2015-08-25T18:03:10Z</time>
      </trkpt>
      <trkpt lat="47.44802" lon="-0.62676">
        <ele>73</ele>
        <time>2015-08-25T18:03:20Z</time>
      </trkpt>
      <trkpt lat="47.448" lon="-0.62671">
        <ele>74</ele>
        <time>2015-08-25T18:03:22Z</time>
      </trkpt>
      <trkpt lat="47.44804" lon="-0.62642">
        <ele>74</ele>
        <time>2015-08-25T18:03:31Z</time>
      </trkpt>
      <trkpt lat="47.44803" lon="-0.62604">
        <ele>73</ele>
        <time>2015-08-25T18:03:38Z</time>
      </trkpt>
      <trkpt lat="47.44808" lon="-0.62587">
        <ele>73</ele>
        <time>2015-08-25T18:03:44Z</time>
      </trkpt>
      <trkpt lat="47.4482" lon="-0.62581">
        <ele>72</ele>
        <time>2015-08-25T18:03:50Z</time>
      </trkpt>
      <trkpt lat="47.44823" lon="-0.62581">
        <ele>72</ele>
        <time>2015-08-25T18:03:52Z</time>
      </trkpt>
      <trkpt lat="47.44848" lon="-0.62575">
        <ele>71</ele>
        <time>2015-08-25T18:04:02Z</time>
      </trkpt>
      <trkpt lat="47.44863" lon="-0.62559">
        <ele>70</ele>
        <time>2015-08-25T18:04:08Z</time>
      </trkpt>
      <trkpt lat="47.44869" lon="-0.62555">
        <ele>70</ele>
        <time>2015-08-25T18:04:11Z</time>
      </trkpt>
      <trkpt lat="47.44882" lon="-0.62551">
        <ele>69</ele>
        <time>2015-08-25T18:04:16Z</time>
      </trkpt>
      <trkpt lat="47.44913" lon="-0.6254">
        <ele>68</ele>
        <time>2015-08-25T18:04:27Z</time>
      </trkpt>
      <trkpt lat="47.44915" lon="-0.62538">
        <ele>68</ele>
        <time>2015-08-25T18:04:28Z</time>
      </trkpt>
      <trkpt lat="47.44927" lon="-0.62532">
        <ele>68</ele>
        <time>2015-08-25T18:04:34Z</time>
      </trkpt>
      <trkpt lat="47.44951" lon="-0.62518">
        <ele>68</ele>
        <time>2015-08-25T18:04:44Z</time>
      </trkpt>
      <trkpt lat="47.44953" lon="-0.6251">
        <ele>67</ele>
        <time>2015-08-25T18:04:46Z</time>
      </trkpt>
      <trkpt lat="47.44962" lon="-0.62494">
        <ele>67</ele>
        <time>2015-08-25T18:04:52Z</time>
      </trkpt>
      <trkpt lat="47.44989" lon="-0.62465">
        <ele>66</ele>
        <time>2015-08-25T18:05:02Z</time>
      </trkpt>
      <trkpt lat="47.44992" lon="-0.6246">
        <ele>66</ele>
        <time>2015-08-25T18:05:04Z</time>
      </trkpt>
      <trkpt lat="47.4501" lon="-0.62432">
        <ele>66</ele>
        <time>2015-08-25T18:05:14Z</time>
      </trkpt>
      <trkpt lat="47.45013" lon="-0.62429">
        <ele>66</ele>
        <time>2015-08-25T18:05:16Z</time>
      </trkpt>
      <trkpt lat="47.45023" lon="-0.62421">
        <ele>65</ele>
        <time>2015-08-25T18:05:22Z</time>
      </trkpt>
      <trkpt lat="47.45033" lon="-0.62412">
        <ele>65</ele>
        <time>2015-08-25T18:05:28Z</time>
      </trkpt>
      <trkpt lat="47.45036" lon="-0.62424">
        <ele>65</ele>
        <time>2015-08-25T18:05:34Z</time>
      </trkpt>
      <trkpt lat="47.45041" lon="-0.62457">
        <ele>65</ele>
        <time>2015-08-25T18:05:43Z</time>
      </trkpt>
      <trkpt lat="47.45044" lon="-0.6247">
        <ele>65</ele>
        <time>2015-08-25T18:05:47Z</time>
      </trkpt>
      <trkpt lat="47.45046" lon="-0.62481">
        <ele>65</ele>
        <time>2015-08-25T18:05:52Z</time>
      </trkpt>
      <trkpt lat="47.45056" lon="-0.62521">
        <ele>65</ele>
        <time>2015-08-25T18:06:02Z</time>
      </trkpt>
      <trkpt lat="47.45057" lon="-0.6253">
        <ele>64</ele>
        <time>2015-08-25T18:06:04Z</time>
      </trkpt>
      <trkpt lat="47.45067" lon="-0.62543">
        <ele>64</ele>
        <time>2015-08-25T18:06:10Z</time>
      </trkpt>
      <trkpt lat="47.45074" lon="-0.62555">
        <ele>64</ele>
        <time>2015-08-25T18:06:16Z</time>
      </trkpt>
      <trkpt lat="47.45083" lon="-0.62581">
        <ele>64</ele>
        <time>2015-08-25T18:06:22Z</time>
      </trkpt>
      <trkpt lat="47.45097" lon="-0.62603">
        <ele>64</ele>
        <time>2015-08-25T18:06:30Z</time>
      </trkpt>
      <trkpt lat="47.45101" lon="-0.62621">
        <ele>63</ele>
        <time>2015-08-25T18:06:34Z</time>
      </trkpt>
      <trkpt lat="47.45106" lon="-0.6264">
        <ele>63</ele>
        <time>2015-08-25T18:06:40Z</time>
      </trkpt>
      <trkpt lat="47.45123" lon="-0.62662">
        <ele>63</ele>
        <time>2015-08-25T18:06:49Z</time>
      </trkpt>
      <trkpt lat="47.45127" lon="-0.62673">
        <ele>63</ele>
        <time>2015-08-25T18:06:52Z</time>
      </trkpt>
      <trkpt lat="47.45147" lon="-0.62711">
        <ele>62</ele>
        <time>2015-08-25T18:07:02Z</time>
      </trkpt>
      <trkpt lat="47.45152" lon="-0.62717">
        <ele>62</ele>
        <time>2015-08-25T18:07:05Z</time>
      </trkpt>
      <trkpt lat="47.45155" lon="-0.62732">
        <ele>62</ele>
        <time>2015-08-25T18:07:10Z</time>
      </trkpt>
      <trkpt lat="47.45162" lon="-0.62753">
        <ele>62</ele>
        <time>2015-08-25T18:07:16Z</time>
      </trkpt>
      <trkpt lat="47.45167" lon="-0.62788">
        <ele>61</ele>
        <time>2015-08-25T18:07:27Z</time>
      </trkpt>
      <trkpt lat="47.45171" lon="-0.62795">
        <ele>61</ele>
        <time>2015-08-25T18:07:31Z</time>
      </trkpt>
      <trkpt lat="47.45173" lon="-0.62802">
        <ele>62</ele>
        <time>2015-08-25T18:07:34Z</time>
      </trkpt>
      <trkpt lat="47.45178" lon="-0.62843">
        <ele>62</ele>
        <time>2015-08-25T18:07:45Z</time>
      </trkpt>
      <trkpt lat="47.45179" lon="-0.62845">
        <ele>62</ele>
        <time>2015-08-25T18:07:46Z</time>
      </trkpt>
      <trkpt lat="47.45186" lon="-0.62889">
        <ele>62</ele>
        <time>2015-08-25T18:07:56Z</time>
      </trkpt>
      <trkpt lat="47.4518" lon="-0.62901">
        <ele>62</ele>
        <time>2015-08-25T18:08:02Z</time>
      </trkpt>
      <trkpt lat="47.45169" lon="-0.62919">
        <ele>62</ele>
        <time>2015-08-25T18:08:08Z</time>
      </trkpt>
      <trkpt lat="47.45163" lon="-0.62928">
        <ele>63</ele>
        <time>2015-08-25T18:08:11Z</time>
      </trkpt>
      <trkpt lat="47.45157" lon="-0.62941">
        <ele>63</ele>
        <time>2015-08-25T18:08:16Z</time>
      </trkpt>
      <trkpt lat="47.45147" lon="-0.62956">
        <ele>63</ele>
        <time>2015-08-25T18:08:22Z</time>
      </trkpt>
      <trkpt lat="47.45136" lon="-0.6298">
        <ele>64</ele>
        <time>2015-08-25T18:08:32Z</time>
      </trkpt>
      <trkpt lat="47.45132" lon="-0.62985">
        <ele>64</ele>
        <time>2015-08-25T18:08:34Z</time>
      </trkpt>
      <trkpt lat="47.45123" lon="-0.62999">
        <ele>65</ele>
        <time>2015-08-25T18:08:40Z</time>
      </trkpt>
      <trkpt lat="47.45116" lon="-0.63021">
        <ele>65</ele>
        <time>2015-08-25T18:08:46Z</time>
      </trkpt>
      <trkpt lat="47.45101" lon="-0.63056">
        <ele>65</ele>
        <time>2015-08-25T18:08:57Z</time>
      </trkpt>
      <trkpt lat="47.451" lon="-0.63058">
        <ele>65</ele>
        <time>2015-08-25T18:08:58Z</time>
      </trkpt>
    </trkseg>
  </trk>
</gpx>